Terminal Aerodrome Forecast
Issued by NWS

Home | Current Version | Previous Version | Text Only | Print | Product List | Glossary Off
Versions: 1 2 3 4 5 6 7 8 9 10 11 12 13 14 15 16 17 18 19 20 21 22 23 24 25 26 27 28

000
FTUS43 KABR 261126
TAFPIR
TAF
KPIR 261126Z 2612/2712 VRB05KT P6SM SKC
      TEMPO 2612/2614 2SM BR
     FM262000 11010KT P6SM SKC PROB30 2704/2708 -TSRA BKN050CB=

USA.gov is the U.S. government's official web portal to all federal, state and local government web resources and services.